createdAt,value
2019-01-23T00:02:19.908Z,44.87
2019-01-23T00:04:48.743Z,44.33
2019-01-23T00:07:18.117Z,44.13
2019-01-23T00:09:47.164Z,43.23
2019-01-23T00:12:15.991Z,41.33
2019-01-23T00:14:44.877Z,44.67
2019-01-23T00:17:13.684Z,46.37
2019-01-23T00:19:42.544Z,43.70
2019-01-23T00:22:11.339Z,46.80
2019-01-23T00:24:40.407Z,46.80
2019-01-23T00:27:09.158Z,42.27
2019-01-23T00:29:38.550Z,44.63
2019-01-23T00:32:07.870Z,45.97
2019-01-23T00:34:37.419Z,42.63
2019-01-23T00:37:06.192Z,43.97
2019-01-23T00:39:35.377Z,42.80
2019-01-23T00:42:04.197Z,45.20
2019-01-23T00:44:32.962Z,41.10
2019-01-23T00:47:03.038Z,47.00
2019-01-23T00:49:31.879Z,46.70
2019-01-23T00:52:00.727Z,46.97
2019-01-23T00:54:29.523Z,41.53
2019-01-23T00:56:58.273Z,45.40
2019-01-23T00:59:27.072Z,44.87
2019-01-23T01:01:56.275Z,44.80
2019-01-23T01:04:25.145Z,41.90
2019-01-23T01:06:54.091Z,44.87
2019-01-23T01:09:22.983Z,45.92
2019-01-23T01:11:51.752Z,44.37
2019-01-23T01:14:20.543Z,43.60
2019-01-23T01:16:49.355Z,44.00
2019-01-23T01:19:18.247Z,44.50
2019-01-23T01:21:47.130Z,43.93
2019-01-23T01:24:15.956Z,46.87
2019-01-23T01:26:44.779Z,49.00
2019-01-23T01:29:13.571Z,43.93
2019-01-23T01:31:42.408Z,46.77
2019-01-23T01:34:11.158Z,47.17
2019-01-23T01:36:40.103Z,43.40
2019-01-23T01:39:09.190Z,45.30
2019-01-23T01:41:38.800Z,47.73
2019-01-23T01:44:07.522Z,45.17
2019-01-23T01:46:36.298Z,42.13
2019-01-23T01:49:05.394Z,43.00
2019-01-23T01:51:34.278Z,43.10
2019-01-23T01:54:03.053Z,41.67
2019-01-23T01:56:31.954Z,44.67
2019-01-23T01:59:02.861Z,47.80
2019-01-23T02:01:31.369Z,43.60
2019-01-23T02:04:00.105Z,47.83
2019-01-23T02:06:29.186Z,45.97
2019-01-23T02:08:57.974Z,46.13
2019-01-23T02:11:26.797Z,48.93
2019-01-23T02:13:55.658Z,48.53
2019-01-23T02:16:24.388Z,47.37
2019-01-23T02:18:53.174Z,43.93
2019-01-23T02:21:22.084Z,50.10
2019-01-23T02:23:50.961Z,46.97
2019-01-23T02:26:19.738Z,48.50
2019-01-23T02:28:48.635Z,53.05
2019-01-23T02:31:17.489Z,50.00
2019-01-23T02:33:46.263Z,45.43
2019-01-23T02:36:15.010Z,48.70
2019-01-23T02:38:43.803Z,47.63
2019-01-23T02:41:15.952Z,49.07
2019-01-23T02:43:45.041Z,50.53
2019-01-23T02:46:13.949Z,49.07
2019-01-23T02:48:42.830Z,48.87
2019-01-23T02:51:11.601Z,48.73
2019-01-23T02:53:40.392Z,50.63
2019-01-23T02:56:09.179Z,44.77
2019-01-23T02:58:38.006Z,44.70
2019-01-23T03:01:06.769Z,49.70
2019-01-23T03:03:35.836Z,49.50
2019-01-23T03:06:04.993Z,46.47
2019-01-23T03:08:33.774Z,46.60
2019-01-23T03:11:02.735Z,44.23
2019-01-23T03:13:31.860Z,46.90
2019-01-23T03:16:00.808Z,42.63
2019-01-23T03:18:29.547Z,45.40
2019-01-23T03:20:58.334Z,46.60
2019-01-23T03:23:27.236Z,43.53
2019-01-23T03:25:57.724Z,44.13
2019-01-23T03:28:26.481Z,42.27
2019-01-23T03:30:55.358Z,45.37
2019-01-23T03:33:24.218Z,43.37
2019-01-23T03:35:53.019Z,44.97
2019-01-23T03:38:22.826Z,41.57
2019-01-23T03:40:51.670Z,41.47
2019-01-23T03:43:20.618Z,44.43
2019-01-23T03:45:50.186Z,42.03
2019-01-23T03:48:18.985Z,42.50
2019-01-23T03:50:47.758Z,40.63
2019-01-23T03:53:16.712Z,44.17
2019-01-23T03:55:46.636Z,45.58
2019-01-23T03:58:15.399Z,43.43
2019-01-23T04:00:44.193Z,42.70
2019-01-23T04:03:13.019Z,45.97
2019-01-23T04:05:41.785Z,44.67
2019-01-23T04:08:10.739Z,44.63
2019-01-23T04:10:39.615Z,44.27
2019-01-23T04:13:08.510Z,43.27
2019-01-23T04:15:37.554Z,41.80
2019-01-23T04:18:06.725Z,43.73
2019-01-23T04:20:35.748Z,45.60
2019-01-23T04:23:04.795Z,41.10
2019-01-23T04:25:33.598Z,40.23
2019-01-23T04:28:02.419Z,39.20
2019-01-23T04:30:31.365Z,41.80
2019-01-23T04:33:00.247Z,40.53
2019-01-23T04:35:28.972Z,41.10
2019-01-23T04:37:59.834Z,40.77
2019-01-23T04:40:28.587Z,40.47
2019-01-23T04:42:57.542Z,43.00
2019-01-23T04:45:26.342Z,39.97
2019-01-23T04:47:55.132Z,42.60
2019-01-23T04:50:23.917Z,42.50
2019-01-23T04:53:09.940Z,41.67
2019-01-23T04:55:40.681Z,37.73
2019-01-23T04:58:09.481Z,39.47
2019-01-23T05:00:38.361Z,38.87
2019-01-23T05:03:07.373Z,37.43
2019-01-23T05:05:36.186Z,38.07
2019-01-23T05:08:05.095Z,41.73
2019-01-23T05:10:36.665Z,42.03
2019-01-23T05:13:06.010Z,41.47
2019-01-23T05:15:34.827Z,40.60
2019-01-23T05:18:03.580Z,41.43
2019-01-23T05:20:32.381Z,41.27
2019-01-23T05:23:01.135Z,39.63
2019-01-23T05:25:30.506Z,39.03
2019-01-23T05:27:59.898Z,39.60
2019-01-23T05:30:28.673Z,39.10
2019-01-23T05:32:57.429Z,38.33
2019-01-23T05:35:26.287Z,37.23
2019-01-23T05:37:57.183Z,39.70
2019-01-23T05:40:26.069Z,37.83
2019-01-23T05:42:54.825Z,38.77
2019-01-23T05:45:24.027Z,36.90
2019-01-23T05:47:52.766Z,41.37
2019-01-23T05:50:21.690Z,37.27
2019-01-23T05:52:50.458Z,38.77
2019-01-23T05:55:19.489Z,38.27
2019-01-23T05:57:48.363Z,42.53
2019-01-23T06:00:18.182Z,43.37
2019-01-23T06:02:47.077Z,39.80
2019-01-23T06:05:16.243Z,39.07
2019-01-23T06:07:45.047Z,39.33
2019-01-23T06:10:13.886Z,38.97
2019-01-23T06:12:42.838Z,37.30
2019-01-23T06:15:11.726Z,40.60
2019-01-23T06:17:40.629Z,36.70
2019-01-23T06:20:10.539Z,41.77
2019-01-23T06:22:39.879Z,37.27
2019-01-23T06:25:08.874Z,36.10
2019-01-23T06:27:37.754Z,41.57
2019-01-23T06:30:10.399Z,40.30
2019-01-23T06:32:39.034Z,36.90
2019-01-23T06:35:07.815Z,37.17
2019-01-23T06:37:37.393Z,33.93
2019-01-23T06:40:06.623Z,33.77
2019-01-23T06:42:35.552Z,37.50
2019-01-23T06:45:05.332Z,39.43
2019-01-23T06:47:34.322Z,36.73
2019-01-23T06:50:03.145Z,39.10
2019-01-23T06:52:31.896Z,37.93
2019-01-23T06:55:00.706Z,42.00
2019-01-23T06:57:29.481Z,36.43
2019-01-23T07:00:00.017Z,40.30
2019-01-23T07:02:28.908Z,36.90
2019-01-23T07:04:57.740Z,39.27
2019-01-23T07:07:27.147Z,38.70
2019-01-23T07:09:56.499Z,37.30
2019-01-23T07:12:25.496Z,31.80
2019-01-23T07:14:54.280Z,42.57
2019-01-23T07:17:23.494Z,39.27
2019-01-23T07:19:52.405Z,38.30
2019-01-23T07:22:21.174Z,41.43
2019-01-23T07:24:49.983Z,37.87
2019-01-23T07:27:18.859Z,38.57
2019-01-23T07:29:47.789Z,41.30
2019-01-23T07:32:16.590Z,39.60
2019-01-23T07:34:45.538Z,40.27
2019-01-23T07:37:14.452Z,37.23
2019-01-23T07:39:43.281Z,40.70
2019-01-23T07:42:12.161Z,40.83
2019-01-23T07:44:41.222Z,43.57
2019-01-23T07:47:10.112Z,51.00
2019-01-23T07:49:38.912Z,40.37
2019-01-23T07:52:07.706Z,67.10
2019-01-23T07:54:36.487Z,35.80
2019-01-23T07:57:05.278Z,36.47
2019-01-23T07:59:34.130Z,36.63
2019-01-23T08:02:02.906Z,37.60
2019-01-23T08:04:31.713Z,38.23
2019-01-23T08:07:00.700Z,41.47
2019-01-23T08:09:29.615Z,41.27
2019-01-23T08:11:58.425Z,38.93
2019-01-23T08:14:27.308Z,39.57
2019-01-23T08:16:56.140Z,43.77
2019-01-23T08:19:26.850Z,40.40
2019-01-23T08:21:55.658Z,38.27
2019-01-23T08:24:24.468Z,42.30
2019-01-23T08:26:53.278Z,40.15
2019-01-23T08:29:22.393Z,40.83
2019-01-23T08:31:51.397Z,44.67
2019-01-23T08:34:26.459Z,46.53
2019-01-23T08:36:55.307Z,43.37
2019-01-23T08:39:24.160Z,42.47
2019-01-23T08:41:53.028Z,42.93
2019-01-23T08:44:21.901Z,44.23
2019-01-23T08:46:50.746Z,42.73
2019-01-23T08:49:19.599Z,43.70
2019-01-23T08:51:48.470Z,40.77
2019-01-23T08:54:17.306Z,46.30
2019-01-23T08:56:46.098Z,39.63
2019-01-23T08:59:14.912Z,42.67
2019-01-23T09:01:43.707Z,42.80
2019-01-23T09:04:12.628Z,42.87
2019-01-23T09:06:41.413Z,45.93
2019-01-23T09:09:10.200Z,45.35
2019-01-23T09:11:39.196Z,44.03
2019-01-23T09:14:08.159Z,43.37
2019-01-23T09:16:36.944Z,44.50
2019-01-23T09:19:06.074Z,48.43
2019-01-23T09:21:34.969Z,45.97
2019-01-23T09:24:04.607Z,45.97
2019-01-23T09:26:33.584Z,45.77
2019-01-23T09:29:02.414Z,41.63
2019-01-23T09:31:53.508Z,45.17
2019-01-23T09:34:27.971Z,42.90
2019-01-23T09:37:00.443Z,44.73
2019-01-23T09:39:57.367Z,45.83
2019-01-23T09:42:57.476Z,45.67
2019-01-23T09:45:45.366Z,46.40
2019-01-23T09:48:19.976Z,42.03
2019-01-23T09:51:02.071Z,44.03
2019-01-23T09:53:33.658Z,43.43
2019-01-23T09:56:02.476Z,44.10
2019-01-23T09:58:40.225Z,45.43
2019-01-23T10:01:09.068Z,40.60
2019-01-23T10:03:38.148Z,38.47
2019-01-23T10:06:07.130Z,45.87
2019-01-23T10:08:36.915Z,44.70
2019-01-23T10:11:05.771Z,42.50
2019-01-23T10:13:34.979Z,45.60
2019-01-23T10:16:06.566Z,44.00
2019-01-23T10:18:35.655Z,43.47
2019-01-23T10:21:04.626Z,44.77
2019-01-23T10:23:33.594Z,45.53
2019-01-23T10:26:02.433Z,46.63
2019-01-23T10:28:31.346Z,41.03
2019-01-23T10:31:06.420Z,39.67
2019-01-23T10:33:30.901Z,44.98
2019-01-23T10:35:59.838Z,43.90
2019-01-23T10:38:28.627Z,40.47
2019-01-23T10:40:57.454Z,45.40
2019-01-23T10:43:26.263Z,46.97
2019-01-23T10:45:55.230Z,43.97
2019-01-23T10:48:24.095Z,45.73
2019-01-23T10:50:55.404Z,46.60
2019-01-23T10:53:24.214Z,44.27
2019-01-23T10:55:53.094Z,41.23
2019-01-23T10:58:21.968Z,43.20
2019-01-23T11:00:50.710Z,38.60
2019-01-23T11:03:19.669Z,38.23
2019-01-23T11:05:48.640Z,40.00
2019-01-23T11:08:17.446Z,35.03
2019-01-23T11:10:46.225Z,33.17
2019-01-23T11:13:15.191Z,35.47
2019-01-23T11:15:44.156Z,36.97
2019-01-23T11:18:13.007Z,39.07
2019-01-23T11:20:41.915Z,41.83
2019-01-23T11:23:17.359Z,37.40
2019-01-23T11:25:46.270Z,36.90
2019-01-23T11:28:15.116Z,36.17
2019-01-23T11:30:44.060Z,36.23
2019-01-23T11:33:14.828Z,35.37
2019-01-23T11:35:43.617Z,42.13
2019-01-23T11:38:12.805Z,39.60
2019-01-23T11:40:42.017Z,34.03
2019-01-23T11:43:11.474Z,37.00
2019-01-23T11:45:40.944Z,43.03
2019-01-23T11:48:09.802Z,37.40
2019-01-23T11:50:38.850Z,42.27
2019-01-23T11:53:08.055Z,41.90
2019-01-23T11:55:36.879Z,42.57
2019-01-23T11:58:05.890Z,45.17
2019-01-23T12:00:36.441Z,45.07
2019-01-23T12:03:06.217Z,41.70
2019-01-23T12:05:35.042Z,47.80
2019-01-23T12:08:04.151Z,45.17
2019-01-23T12:10:33.032Z,40.13
2019-01-23T12:13:01.839Z,42.60
2019-01-23T12:15:31.304Z,43.30
2019-01-23T12:18:00.253Z,43.10
2019-01-23T12:20:29.070Z,41.30
2019-01-23T12:22:58.098Z,45.10
2019-01-23T12:25:26.938Z,42.43
2019-01-23T12:27:55.700Z,41.43
2019-01-23T12:30:26.022Z,39.83
2019-01-23T12:32:54.988Z,44.30
2019-01-23T12:35:23.793Z,41.03
2019-01-23T12:37:52.757Z,40.67
2019-01-23T12:40:21.549Z,42.17
2019-01-23T12:42:51.135Z,44.13
2019-01-23T12:45:20.999Z,41.63
2019-01-23T12:47:52.937Z,43.03
2019-01-23T12:50:23.138Z,42.13
2019-01-23T12:52:52.013Z,44.50
2019-01-23T12:55:20.945Z,40.13
2019-01-23T12:57:49.772Z,45.83
2019-01-23T13:00:20.373Z,46.80
2019-01-23T13:02:49.411Z,44.00
2019-01-23T13:05:19.023Z,43.37
2019-01-23T13:07:48.007Z,44.80
2019-01-23T13:10:17.509Z,39.53
2019-01-23T13:12:46.503Z,42.00
2019-01-23T13:15:20.146Z,47.97
2019-01-23T13:17:49.087Z,44.97
2019-01-23T13:20:20.471Z,42.20
2019-01-23T13:22:49.273Z,45.13
2019-01-23T13:25:19.119Z,44.30
2019-01-23T13:27:48.730Z,45.77
2019-01-23T13:30:18.579Z,41.77
2019-01-23T13:32:47.444Z,44.63
2019-01-23T13:35:18.077Z,43.97
2019-01-23T13:37:46.939Z,45.07
2019-01-23T13:40:17.946Z,43.77
2019-01-23T13:42:47.296Z,44.50
2019-01-23T13:45:16.146Z,47.07
2019-01-23T13:47:45.080Z,46.60
2019-01-23T13:50:14.038Z,43.90
2019-01-23T13:52:43.170Z,42.10
2019-01-23T13:55:12.926Z,42.53
2019-01-23T13:57:41.712Z,45.65
2019-01-23T14:00:15.622Z,43.27
2019-01-23T14:02:44.633Z,49.27
2019-01-23T14:05:13.430Z,46.80
2019-01-23T14:07:42.652Z,47.10
2019-01-23T14:10:12.589Z,49.40
2019-01-23T14:12:41.777Z,45.30
2019-01-23T14:15:12.551Z,42.60
2019-01-23T14:17:41.401Z,49.80
2019-01-23T14:20:11.019Z,48.13
2019-01-23T14:22:39.845Z,46.20
2019-01-23T14:25:09.602Z,45.97
2019-01-23T14:27:38.503Z,45.00
2019-01-23T14:30:09.254Z,47.07
2019-01-23T14:32:38.111Z,46.10
2019-01-23T14:35:07.145Z,49.70
2019-01-23T14:37:36.222Z,49.27
2019-01-23T14:40:05.501Z,46.73
2019-01-23T14:42:34.493Z,50.97
2019-01-23T14:45:03.601Z,48.60
2019-01-23T14:47:32.577Z,45.03
2019-01-23T14:50:01.414Z,46.83
2019-01-23T14:52:30.279Z,46.50
2019-01-23T14:54:59.159Z,45.40
2019-01-23T14:57:28.011Z,42.93
2019-01-23T14:59:58.979Z,47.80
2019-01-23T15:02:27.941Z,45.73
2019-01-23T15:04:57.938Z,47.13
2019-01-23T15:07:27.005Z,44.17
2019-01-23T15:09:55.852Z,43.90
2019-01-23T15:12:24.738Z,48.93
2019-01-23T15:14:54.011Z,46.47
2019-01-23T15:17:23.571Z,47.83
2019-01-23T15:19:52.535Z,46.40
2019-01-23T15:22:21.365Z,48.27
2019-01-23T15:24:50.228Z,49.33
2019-01-23T15:27:19.075Z,42.00
2019-01-23T15:29:47.920Z,46.13
2019-01-23T15:32:17.477Z,52.00
2019-01-23T15:34:46.476Z,46.80
2019-01-23T15:37:15.836Z,44.90
2019-01-23T15:39:44.727Z,46.00
2019-01-23T15:42:13.599Z,45.57
2019-01-23T15:44:42.420Z,58.97
2019-01-23T15:47:11.244Z,46.37
2019-01-23T15:49:40.079Z,45.90
2019-01-23T15:52:09.055Z,47.50
2019-01-23T15:54:37.850Z,46.43
2019-01-23T15:57:06.813Z,43.57
2019-01-23T15:59:35.672Z,46.27
2019-01-23T16:02:04.848Z,44.57
2019-01-23T16:04:35.461Z,46.13
2019-01-23T16:07:04.340Z,46.83
2019-01-23T16:09:33.161Z,47.63
2019-01-23T16:12:02.142Z,49.27
2019-01-23T16:14:30.981Z,45.80
2019-01-23T16:17:00.029Z,48.37
2019-01-23T16:19:29.034Z,45.93
2019-01-23T16:21:57.921Z,43.07
2019-01-23T16:24:27.362Z,44.17
2019-01-23T16:26:56.201Z,48.37
2019-01-23T16:29:25.048Z,44.17
2019-01-23T16:31:53.962Z,46.50
2019-01-23T16:34:22.844Z,42.53
2019-01-23T16:36:51.885Z,45.67
2019-01-23T16:39:20.787Z,44.43
2019-01-23T16:41:49.714Z,46.03
2019-01-23T16:44:18.638Z,48.80
2019-01-23T16:46:48.073Z,52.90
2019-01-23T16:49:19.279Z,48.77
2019-01-23T16:51:51.424Z,50.13
2019-01-23T16:54:18.911Z,44.53
2019-01-23T16:56:47.800Z,48.10
2019-01-23T16:59:16.814Z,44.83
2019-01-23T17:01:45.821Z,43.20
2019-01-23T17:04:14.597Z,47.87
2019-01-23T17:06:43.755Z,46.97
2019-01-23T17:09:12.763Z,44.67
2019-01-23T17:11:41.716Z,47.20
2019-01-23T17:14:11.041Z,43.60
2019-01-23T17:16:39.868Z,47.37
2019-01-23T17:19:09.370Z,45.47
2019-01-23T17:21:38.259Z,41.23
2019-01-23T17:24:07.373Z,46.23
2019-01-23T17:26:36.200Z,42.50
2019-01-23T17:29:05.253Z,43.07
2019-01-23T17:31:34.657Z,46.40
2019-01-23T17:34:03.956Z,46.47
2019-01-23T17:36:33.215Z,44.77
2019-01-23T17:39:02.752Z,43.97
2019-01-23T17:41:32.452Z,43.33
2019-01-23T17:44:01.804Z,45.37
2019-01-23T17:46:30.660Z,45.50
2019-01-23T17:48:59.601Z,42.87
2019-01-23T17:51:28.627Z,43.00
2019-01-23T17:53:57.651Z,43.20
2019-01-23T17:56:26.519Z,43.37
2019-01-23T17:58:55.398Z,46.00
2019-01-23T18:01:24.276Z,47.03
2019-01-23T18:03:53.082Z,44.33
2019-01-23T18:06:23.958Z,43.40
2019-01-23T18:08:52.881Z,46.00
2019-01-23T18:11:21.784Z,46.17
2019-01-23T18:13:50.693Z,43.23
2019-01-23T18:16:19.558Z,47.13
2019-01-23T18:18:49.012Z,45.13
2019-01-23T18:21:20.441Z,47.17
2019-01-23T18:23:49.859Z,48.87
2019-01-23T18:26:18.821Z,46.47
2019-01-23T18:28:48.399Z,45.60
2019-01-23T18:31:22.523Z,45.87
2019-01-23T18:34:09.058Z,48.93
2019-01-23T18:36:43.464Z,43.00
2019-01-23T18:39:28.995Z,51.87
2019-01-23T18:42:04.732Z,50.53
2019-01-23T18:44:45.809Z,44.93
2019-01-23T18:47:34.661Z,48.37
2019-01-23T18:50:21.572Z,47.47
2019-01-23T18:52:50.727Z,46.03
2019-01-23T18:55:20.543Z,48.63
2019-01-23T18:57:49.417Z,50.97
2019-01-23T19:00:19.808Z,44.00
2019-01-23T19:02:48.732Z,53.00
2019-01-23T19:05:18.311Z,49.77
2019-01-23T19:07:47.650Z,48.40
2019-01-23T19:10:16.942Z,49.27
2019-01-23T19:12:45.876Z,48.47
2019-01-23T19:15:15.953Z,53.63
2019-01-23T19:17:44.861Z,49.23
2019-01-23T19:20:15.684Z,47.77
2019-01-23T19:22:44.708Z,51.03
2019-01-23T19:25:13.528Z,48.93
2019-01-23T19:27:42.752Z,51.40
2019-01-23T19:30:14.811Z,53.90
2019-01-23T19:32:43.983Z,50.13
2019-01-23T19:35:12.943Z,50.20
2019-01-23T19:37:41.857Z,48.07
2019-01-23T19:40:11.247Z,51.47
2019-01-23T19:42:40.402Z,49.97
2019-01-23T19:45:12.102Z,50.70
2019-01-23T19:47:41.180Z,52.30
2019-01-23T19:50:10.999Z,49.97
2019-01-23T19:52:40.489Z,47.57
2019-01-23T19:55:10.522Z,49.90
2019-01-23T19:57:40.227Z,49.40
2019-01-23T20:00:11.488Z,52.23
2019-01-23T20:02:40.752Z,51.75
2019-01-23T20:05:10.752Z,53.97
2019-01-23T20:07:40.872Z,56.23
2019-01-23T20:10:14.487Z,54.27
2019-01-23T20:12:42.064Z,54.17
2019-01-23T20:15:14.211Z,52.57
2019-01-23T20:17:43.250Z,50.07
2019-01-23T20:20:12.514Z,51.67
2019-01-23T20:22:43.335Z,51.90
2019-01-23T20:25:14.210Z,56.17
2019-01-23T20:27:43.190Z,56.80
2019-01-23T20:30:20.484Z,50.63
2019-01-23T20:32:49.969Z,55.63
2019-01-23T20:35:18.924Z,58.90
2019-01-23T20:37:47.927Z,55.60
2019-01-23T20:40:17.069Z,58.60
2019-01-23T20:42:46.212Z,57.90
2019-01-23T20:45:15.458Z,54.20
2019-01-23T20:47:44.257Z,56.13
2019-01-23T20:50:15.483Z,53.60
2019-01-23T20:52:45.545Z,53.30
2019-01-23T20:55:14.696Z,52.10
2019-01-23T20:57:43.771Z,59.53
2019-01-23T21:00:14.679Z,54.13
2019-01-23T21:02:44.230Z,54.13
2019-01-23T21:05:13.479Z,53.87
2019-01-23T21:07:43.276Z,57.90
2019-01-23T21:10:12.792Z,53.37
2019-01-23T21:12:41.856Z,55.77
2019-01-23T21:15:14.904Z,52.83
2019-01-23T21:17:43.970Z,52.43
2019-01-23T21:20:14.527Z,53.43
2019-01-23T21:22:43.572Z,57.63
2019-01-23T21:25:12.877Z,55.40
2019-01-23T21:27:41.756Z,56.33
2019-01-23T21:30:15.250Z,54.03
2019-01-23T21:32:44.152Z,53.50
2019-01-23T21:35:13.417Z,55.47
2019-01-23T21:37:42.264Z,54.40
2019-01-23T21:40:21.620Z,58.93
2019-01-23T21:42:50.627Z,59.87
2019-01-23T21:45:19.495Z,56.77
2019-01-23T21:47:48.769Z,52.93
2019-01-23T21:50:18.290Z,53.40
2019-01-23T21:52:47.089Z,57.90
2019-01-23T21:55:17.379Z,56.23
2019-01-23T21:57:46.962Z,52.67
2019-01-23T22:00:23.027Z,55.63
2019-01-23T22:02:52.511Z,58.57
2019-01-23T22:05:23.359Z,57.37
2019-01-23T22:07:52.398Z,53.77
2019-01-23T22:10:23.768Z,55.90
2019-01-23T22:12:52.707Z,58.73
2019-01-23T22:15:22.212Z,56.53
2019-01-23T22:17:51.234Z,55.70
2019-01-23T22:20:20.623Z,60.03
2019-01-23T22:22:49.712Z,53.47
2019-01-23T22:25:19.841Z,63.43
2019-01-23T22:27:48.714Z,54.77
2019-01-23T22:30:18.716Z,57.83
2019-01-23T22:32:47.747Z,56.33
2019-01-23T22:35:16.568Z,53.20
2019-01-23T22:37:45.571Z,55.10
2019-01-23T22:40:15.451Z,57.47
2019-01-23T22:42:44.339Z,63.00
2019-01-23T22:45:14.086Z,59.70
2019-01-23T22:47:43.881Z,57.67
2019-01-23T22:50:16.955Z,55.63
2019-01-23T22:52:45.910Z,60.70
2019-01-23T22:55:15.015Z,62.20
2019-01-23T22:57:43.772Z,58.30
2019-01-23T23:00:19.681Z,60.07
2019-01-23T23:02:48.514Z,57.70
2019-01-23T23:05:17.388Z,59.10
2019-01-23T23:07:46.237Z,58.03
2019-01-23T23:10:15.336Z,59.37
2019-01-23T23:12:44.195Z,55.73
2019-01-23T23:15:13.353Z,58.67
2019-01-23T23:17:42.463Z,55.87
2019-01-23T23:20:11.290Z,57.57
2019-01-23T23:22:40.199Z,58.53
2019-01-23T23:25:09.078Z,62.20
2019-01-23T23:27:39.516Z,58.60
2019-01-23T23:30:18.145Z,57.83
2019-01-23T23:32:46.962Z,59.80
2019-01-23T23:35:15.734Z,64.33
2019-01-23T23:37:44.546Z,56.40
2019-01-23T23:40:13.615Z,63.50
2019-01-23T23:42:42.717Z,56.57
2019-01-23T23:45:11.890Z,66.47
2019-01-23T23:47:40.811Z,62.23
2019-01-23T23:50:10.434Z,63.07
2019-01-23T23:52:39.342Z,57.63
2019-01-23T23:55:08.682Z,59.73
2019-01-23T23:57:37.674Z,61.00
